sensor_id;sensor_type;location;lat;lon;timestamp;temperature;humidity
55365;DHT22;41245;45.384;20.390;2023-04-29T00:01:53;358.70;2329.60
55365;DHT22;41245;45.384;20.390;2023-04-29T00:04:26;358.70;2329.60
55365;DHT22;41245;45.384;20.390;2023-04-29T00:06:51;358.60;2329.60
55365;DHT22;41245;45.384;20.390;2023-04-29T00:09:17;358.60;2329.60
55365;DHT22;41245;45.384;20.390;2023-04-29T00:11:43;358.40;2329.60
55365;DHT22;41245;45.384;20.390;2023-04-29T00:14:09;358.70;2329.60
55365;DHT22;41245;45.384;20.390;2023-04-29T00:16:34;358.70;2329.60
55365;DHT22;41245;45.384;20.390;2023-04-29T00:19:00;358.70;2329.60
55365;DHT22;41245;45.384;20.390;2023-04-29T00:21:26;358.70;2329.60
55365;DHT22;41245;45.384;20.390;2023-04-29T00:23:52;358.70;2329.60
55365;DHT22;41245;45.384;20.390;2023-04-29T00:26:18;358.70;2329.60
55365;DHT22;41245;45.384;20.390;2023-04-29T00:28:44;358.70;2329.60
55365;DHT22;41245;45.384;20.390;2023-04-29T00:31:10;358.60;2329.60
55365;DHT22;41245;45.384;20.390;2023-04-29T00:33:36;358.60;2329.60
55365;DHT22;41245;45.384;20.390;2023-04-29T00:36:02;358.40;2329.60
55365;DHT22;41245;45.384;20.390;2023-04-29T00:38:28;333.60;2329.60
55365;DHT22;41245;45.384;20.390;2023-04-29T00:40:54;333.40;2329.60
55365;DHT22;41245;45.384;20.390;2023-04-29T00:43:20;333.40;2329.60
55365;DHT22;41245;45.384;20.390;2023-04-29T00:45:46;333.60;2329.60
55365;DHT22;41245;45.384;20.390;2023-04-29T00:48:12;333.70;2329.60
55365;DHT22;41245;45.384;20.390;2023-04-29T00:50:40;358.40;2329.60
55365;DHT22;41245;45.384;20.390;2023-04-29T00:53:07;358.40;2329.60
55365;DHT22;41245;45.384;20.390;2023-04-29T00:55:33;358.50;2329.60
55365;DHT22;41245;45.384;20.390;2023-04-29T00:58:00;358.60;2329.60
55365;DHT22;41245;45.384;20.390;2023-04-29T01:00:27;358.70;2329.60
55365;DHT22;41245;45.384;20.390;2023-04-29T01:02:53;358.40;2329.60
55365;DHT22;41245;45.384;20.390;2023-04-29T01:05:24;333.40;2329.60
55365;DHT22;41245;45.384;20.390;2023-04-29T01:08:08;333.00;2329.60
55365;DHT22;41245;45.384;20.390;2023-04-29T01:13:17;332.80;2329.60
55365;DHT22;41245;45.384;20.390;2023-04-29T01:18:32;332.80;2329.60
55365;DHT22;41245;45.384;20.390;2023-04-29T01:20:58;332.80;2329.60
55365;DHT22;41245;45.384;20.390;2023-04-29T01:23:27;308.10;2304.00
55365;DHT22;41245;45.384;20.390;2023-04-29T01:25:53;308.10;2304.00
55365;DHT22;41245;45.384;20.390;2023-04-29T01:31:29;308.00;2304.00
55365;DHT22;41245;45.384;20.390;2023-04-29T01:34:15;332.80;2329.60
55365;DHT22;41245;45.384;20.390;2023-04-29T01:42:14;332.90;2329.60
55365;DHT22;41245;45.384;20.390;2023-04-29T01:44:40;333.00;2329.60
55365;DHT22;41245;45.384;20.390;2023-04-29T01:47:09;333.00;2329.60
55365;DHT22;41245;45.384;20.390;2023-04-29T01:49:38;333.00;2329.60
55365;DHT22;41245;45.384;20.390;2023-04-29T01:52:04;333.10;2329.60
55365;DHT22;41245;45.384;20.390;2023-04-29T01:54:31;333.10;2329.60
55365;DHT22;41245;45.384;20.390;2023-04-29T01:57:01;333.10;2329.60
55365;DHT22;41245;45.384;20.390;2023-04-29T01:59:26;333.10;2329.60
55365;DHT22;41245;45.384;20.390;2023-04-29T02:01:52;333.10;2329.60
55365;DHT22;41245;45.384;20.390;2023-04-29T02:04:18;333.10;2329.60
55365;DHT22;41245;45.384;20.390;2023-04-29T02:06:44;333.00;2329.60
55365;DHT22;41245;45.384;20.390;2023-04-29T02:09:09;333.10;2329.60
55365;DHT22;41245;45.384;20.390;2023-04-29T02:11:35;333.30;2329.60
55365;DHT22;41245;45.384;20.390;2023-04-29T02:14:01;333.30;2329.60
55365;DHT22;41245;45.384;20.390;2023-04-29T02:16:27;333.30;2329.60
55365;DHT22;41245;45.384;20.390;2023-04-29T02:18:52;333.30;2329.60
55365;DHT22;41245;45.384;20.390;2023-04-29T02:21:18;333.10;2329.60
55365;DHT22;41245;45.384;20.390;2023-04-29T02:23:44;333.00;2329.60
55365;DHT22;41245;45.384;20.390;2023-04-29T02:26:10;333.00;2329.60
55365;DHT22;41245;45.384;20.390;2023-04-29T02:28:36;333.00;2329.60
55365;DHT22;41245;45.384;20.390;2023-04-29T02:31:02;333.00;2329.60
55365;DHT22;41245;45.384;20.390;2023-04-29T02:33:28;333.10;2329.60
55365;DHT22;41245;45.384;20.390;2023-04-29T02:35:53;333.00;2329.60
55365;DHT22;41245;45.384;20.390;2023-04-29T02:38:19;333.00;2329.60
55365;DHT22;41245;45.384;20.390;2023-04-29T02:40:45;333.00;2329.60
55365;DHT22;41245;45.384;20.390;2023-04-29T02:43:11;333.00;2329.60
55365;DHT22;41245;45.384;20.390;2023-04-29T02:45:38;333.00;2329.60
55365;DHT22;41245;45.384;20.390;2023-04-29T02:48:05;333.00;2329.60
55365;DHT22;41245;45.384;20.390;2023-04-29T02:50:31;333.00;2329.60
55365;DHT22;41245;45.384;20.390;2023-04-29T02:52:58;333.10;2329.60
55365;DHT22;41245;45.384;20.390;2023-04-29T02:55:23;333.10;2329.60
55365;DHT22;41245;45.384;20.390;2023-04-29T02:57:49;333.10;2329.60
55365;DHT22;41245;45.384;20.390;2023-04-29T03:00:15;333.00;2329.60
55365;DHT22;41245;45.384;20.390;2023-04-29T03:02:40;332.90;2329.60
55365;DHT22;41245;45.384;20.390;2023-04-29T03:05:06;332.90;2329.60
55365;DHT22;41245;45.384;20.390;2023-04-29T03:07:32;333.00;2329.60
55365;DHT22;41245;45.384;20.390;2023-04-29T03:09:58;308.10;2304.00
55365;DHT22;41245;45.384;20.390;2023-04-29T03:12:24;308.10;2304.00
55365;DHT22;41245;45.384;20.390;2023-04-29T03:14:50;332.80;2329.60
55365;DHT22;41245;45.384;20.390;2023-04-29T03:17:18;332.80;2329.60
55365;DHT22;41245;45.384;20.390;2023-04-29T03:19:44;332.80;2329.60
55365;DHT22;41245;45.384;20.390;2023-04-29T03:22:10;308.10;2304.00
55365;DHT22;41245;45.384;20.390;2023-04-29T03:24:37;332.80;2329.60
55365;DHT22;41245;45.384;20.390;2023-04-29T03:27:03;332.80;2329.60
55365;DHT22;41245;45.384;20.390;2023-04-29T03:29:29;308.10;2304.00
55365;DHT22;41245;45.384;20.390;2023-04-29T03:31:56;332.80;2329.60
55365;DHT22;41245;45.384;20.390;2023-04-29T03:34:22;332.80;2329.60
55365;DHT22;41245;45.384;20.390;2023-04-29T03:36:49;308.10;2304.00
55365;DHT22;41245;45.384;20.390;2023-04-29T03:39:16;332.80;2329.60
55365;DHT22;41245;45.384;20.390;2023-04-29T03:41:42;332.90;2329.60
55365;DHT22;41245;45.384;20.390;2023-04-29T03:44:08;308.00;2304.00
55365;DHT22;41245;45.384;20.390;2023-04-29T03:46:33;308.00;2304.00
55365;DHT22;41245;45.384;20.390;2023-04-29T03:48:59;308.00;2304.00
55365;DHT22;41245;45.384;20.390;2023-04-29T03:51:25;308.00;2304.00
55365;DHT22;41245;45.384;20.390;2023-04-29T03:53:53;308.10;2304.00
55365;DHT22;41245;45.384;20.390;2023-04-29T03:56:19;308.10;2304.00
55365;DHT22;41245;45.384;20.390;2023-04-29T03:58:44;308.10;2304.00
55365;DHT22;41245;45.384;20.390;2023-04-29T04:01:11;332.80;2329.60
55365;DHT22;41245;45.384;20.390;2023-04-29T04:03:37;332.80;2329.60
55365;DHT22;41245;45.384;20.390;2023-04-29T04:06:03;332.80;2329.60
55365;DHT22;41245;45.384;20.390;2023-04-29T04:08:28;332.80;2329.60
55365;DHT22;41245;45.384;20.390;2023-04-29T04:10:54;332.90;2329.60
55365;DHT22;41245;45.384;20.390;2023-04-29T04:13:30;332.80;2329.60
55365;DHT22;41245;45.384;20.390;2023-04-29T04:15:56;332.80;2329.60
55365;DHT22;41245;45.384;20.390;2023-04-29T04:18:21;332.80;2329.60
55365;DHT22;41245;45.384;20.390;2023-04-29T04:20:47;332.80;2329.60
55365;DHT22;41245;45.384;20.390;2023-04-29T04:23:13;332.90;2329.60
55365;DHT22;41245;45.384;20.390;2023-04-29T04:25:45;332.90;2329.60
55365;DHT22;41245;45.384;20.390;2023-04-29T04:28:11;333.00;2329.60
55365;DHT22;41245;45.384;20.390;2023-04-29T04:30:36;332.90;2329.60
55365;DHT22;41245;45.384;20.390;2023-04-29T04:33:02;332.80;2329.60
55365;DHT22;41245;45.384;20.390;2023-04-29T04:35:28;308.10;2304.00
55365;DHT22;41245;45.384;20.390;2023-04-29T04:37:54;308.10;2304.00
55365;DHT22;41245;45.384;20.390;2023-04-29T04:40:19;308.10;2304.00
55365;DHT22;41245;45.384;20.390;2023-04-29T04:42:46;308.10;2304.00
55365;DHT22;41245;45.384;20.390;2023-04-29T04:45:11;332.80;2329.60
55365;DHT22;41245;45.384;20.390;2023-04-29T04:47:39;333.00;2329.60
55365;DHT22;41245;45.384;20.390;2023-04-29T04:50:05;333.00;2329.60
55365;DHT22;41245;45.384;20.390;2023-04-29T04:52:32;333.00;2329.60
55365;DHT22;41245;45.384;20.390;2023-04-29T04:54:58;333.10;2329.60
55365;DHT22;41245;45.384;20.390;2023-04-29T04:57:23;333.30;2329.60
55365;DHT22;41245;45.384;20.390;2023-04-29T04:59:50;333.40;2329.60
55365;DHT22;41245;45.384;20.390;2023-04-29T05:02:15;333.40;2329.60
55365;DHT22;41245;45.384;20.390;2023-04-29T05:04:41;333.40;2329.60
55365;DHT22;41245;45.384;20.390;2023-04-29T05:07:07;333.40;2329.60
55365;DHT22;41245;45.384;20.390;2023-04-29T05:09:33;333.40;2329.60
55365;DHT22;41245;45.384;20.390;2023-04-29T05:11:59;333.40;2329.60
55365;DHT22;41245;45.384;20.390;2023-04-29T05:14:25;333.50;2329.60
55365;DHT22;41245;45.384;20.390;2023-04-29T05:16:51;333.70;2329.60
55365;DHT22;41245;45.384;20.390;2023-04-29T05:19:18;333.70;2329.60
55365;DHT22;41245;45.384;20.390;2023-04-29T05:21:43;333.70;2329.60
55365;DHT22;41245;45.384;20.390;2023-04-29T05:24:09;333.60;2329.60
55365;DHT22;41245;45.384;20.390;2023-04-29T05:26:35;333.60;2329.60
55365;DHT22;41245;45.384;20.390;2023-04-29T05:29:01;333.50;2329.60
55365;DHT22;41245;45.384;20.390;2023-04-29T05:31:27;333.50;2329.60
55365;DHT22;41245;45.384;20.390;2023-04-29T05:33:53;333.60;2329.60
55365;DHT22;41245;45.384;20.390;2023-04-29T05:36:18;333.60;2329.60
55365;DHT22;41245;45.384;20.390;2023-04-29T05:38:45;333.50;2329.60
55365;DHT22;41245;45.384;20.390;2023-04-29T05:41:10;333.70;2329.60
55365;DHT22;41245;45.384;20.390;2023-04-29T05:43:38;333.70;2329.60
55365;DHT22;41245;45.384;20.390;2023-04-29T05:46:04;333.70;2329.60
55365;DHT22;41245;45.384;20.390;2023-04-29T05:48:30;333.70;2329.60
55365;DHT22;41245;45.384;20.390;2023-04-29T05:50:56;358.50;2329.60
55365;DHT22;41245;45.384;20.390;2023-04-29T05:53:22;358.50;2329.60
55365;DHT22;41245;45.384;20.390;2023-04-29T05:55:47;358.50;2329.60
55365;DHT22;41245;45.384;20.390;2023-04-29T05:58:15;358.50;2329.60
55365;DHT22;41245;45.384;20.390;2023-04-29T06:00:41;358.60;2329.60
55365;DHT22;41245;45.384;20.390;2023-04-29T06:03:09;358.50;2329.60
55365;DHT22;41245;45.384;20.390;2023-04-29T06:05:36;358.60;2329.60
55365;DHT22;41245;45.384;20.390;2023-04-29T06:08:03;358.70;2329.60
55365;DHT22;41245;45.384;20.390;2023-04-29T06:10:30;358.90;2329.60
55365;DHT22;41245;45.384;20.390;2023-04-29T06:12:56;358.90;2329.60
55365;DHT22;41245;45.384;20.390;2023-04-29T06:15:22;359.30;2329.60
55365;DHT22;41245;45.384;20.390;2023-04-29T06:17:48;384.00;2329.60
55365;DHT22;41245;45.384;20.390;2023-04-29T06:20:13;384.50;2329.60
55365;DHT22;41245;45.384;20.390;2023-04-29T06:22:39;384.80;2329.60
55365;DHT22;41245;45.384;20.390;2023-04-29T06:25:05;409.70;2355.20
55365;DHT22;41245;45.384;20.390;2023-04-29T06:27:31;409.90;2355.20
55365;DHT22;41245;45.384;20.390;2023-04-29T06:29:56;409.90;2355.20
55365;DHT22;41245;45.384;20.390;2023-04-29T06:32:22;410.40;2355.20
55365;DHT22;41245;45.384;20.390;2023-04-29T06:34:48;435.20;2355.20
55365;DHT22;41245;45.384;20.390;2023-04-29T06:37:14;435.70;1971.20
55365;DHT22;41245;45.384;20.390;2023-04-29T06:39:40;461.00;2048.00
55365;DHT22;41245;45.384;20.390;2023-04-29T06:42:05;461.10;2124.80
55365;DHT22;41245;45.384;20.390;2023-04-29T06:44:31;461.10;2099.20
55365;DHT22;41245;45.384;20.390;2023-04-29T06:46:57;461.20;2124.80
55365;DHT22;41245;45.384;20.390;2023-04-29T06:49:23;461.20;2176.00
55365;DHT22;41245;45.384;20.390;2023-04-29T06:51:49;461.10;2201.60
55365;DHT22;41245;45.384;20.390;2023-04-29T06:54:14;460.90;2176.00
55365;DHT22;41245;45.384;20.390;2023-04-29T06:56:41;436.10;2099.20
55365;DHT22;41245;45.384;20.390;2023-04-29T06:59:06;436.10;2022.40
55365;DHT22;41245;45.384;20.390;2023-04-29T07:01:32;460.80;2099.20
55365;DHT22;41245;45.384;20.390;2023-04-29T07:03:58;461.00;2124.80
55365;DHT22;41245;45.384;20.390;2023-04-29T07:06:24;461.10;2176.00
55365;DHT22;41245;45.384;20.390;2023-04-29T07:08:49;461.20;2176.00
55365;DHT22;41245;45.384;20.390;2023-04-29T07:11:16;461.20;2227.20
55365;DHT22;41245;45.384;20.390;2023-04-29T07:13:42;461.30;2278.40
55365;DHT22;41245;45.384;20.390;2023-04-29T07:16:17;461.30;2304.00
55365;DHT22;41245;45.384;20.390;2023-04-29T07:18:45;461.10;2176.00
55365;DHT22;41245;45.384;20.390;2023-04-29T07:21:10;461.10;2201.60
55365;DHT22;41245;45.384;20.390;2023-04-29T07:23:36;461.10;2176.00
55365;DHT22;41245;45.384;20.390;2023-04-29T07:26:13;436.10;2073.60
55365;DHT22;41245;45.384;20.390;2023-04-29T07:28:40;436.00;2022.40
55365;DHT22;41245;45.384;20.390;2023-04-29T07:31:07;436.00;1971.20
55365;DHT22;41245;45.384;20.390;2023-04-29T07:33:34;436.00;2022.40
55365;DHT22;41245;45.384;20.390;2023-04-29T07:36:00;436.00;1971.20
55365;DHT22;41245;45.384;20.390;2023-04-29T07:38:26;460.80;2073.60
55365;DHT22;41245;45.384;20.390;2023-04-29T07:40:52;460.90;2150.40
55365;DHT22;41245;45.384;20.390;2023-04-29T07:43:18;460.90;2150.40
55365;DHT22;41245;45.384;20.390;2023-04-29T07:45:43;436.10;2048.00
55365;DHT22;41245;45.384;20.390;2023-04-29T07:48:09;435.90;1996.80
55365;DHT22;41245;45.384;20.390;2023-04-29T07:50:35;435.90;1971.20
55365;DHT22;41245;45.384;20.390;2023-04-29T07:53:02;435.90;2073.60
55365;DHT22;41245;45.384;20.390;2023-04-29T07:55:28;436.10;2124.80
55365;DHT22;41245;45.384;20.390;2023-04-29T07:57:57;436.00;2099.20
55365;DHT22;41245;45.384;20.390;2023-04-29T08:00:23;436.00;2048.00
55365;DHT22;41245;45.384;20.390;2023-04-29T08:02:53;436.00;2099.20
55365;DHT22;41245;45.384;20.390;2023-04-29T08:05:20;436.10;2150.40
55365;DHT22;41245;45.384;20.390;2023-04-29T08:07:47;436.00;2124.80
55365;DHT22;41245;45.384;20.390;2023-04-29T08:10:13;436.10;2176.00
55365;DHT22;41245;45.384;20.390;2023-04-29T08:12:39;436.10;2201.60
55365;DHT22;41245;45.384;20.390;2023-04-29T08:15:06;436.10;2124.80
55365;DHT22;41245;45.384;20.390;2023-04-29T08:17:31;460.80;2201.60
55365;DHT22;41245;45.384;20.390;2023-04-29T08:19:57;461.00;2124.80
55365;DHT22;41245;45.384;20.390;2023-04-29T08:22:23;461.20;2227.20
55365;DHT22;41245;45.384;20.390;2023-04-29T08:24:49;461.20;2201.60
55365;DHT22;41245;45.384;20.390;2023-04-29T08:27:14;461.70;2278.40
55365;DHT22;41245;45.384;20.390;2023-04-29T08:29:41;486.60;2380.80
55365;DHT22;41245;45.384;20.390;2023-04-29T08:32:06;487.00;2380.80
55365;DHT22;41245;45.384;20.390;2023-04-29T08:34:32;487.30;2380.80
55365;DHT22;41245;45.384;20.390;2023-04-29T08:37:01;512.10;2380.80
55365;DHT22;41245;45.384;20.390;2023-04-29T08:39:28;512.30;2380.80
55365;DHT22;41245;45.384;20.390;2023-04-29T08:41:56;512.40;2380.80
55365;DHT22;41245;45.384;20.390;2023-04-29T08:44:22;512.50;2380.80
55365;DHT22;41245;45.384;20.390;2023-04-29T08:46:49;512.50;2380.80
55365;DHT22;41245;45.384;20.390;2023-04-29T08:49:15;512.30;2380.80
55365;DHT22;41245;45.384;20.390;2023-04-29T08:51:41;512.30;2380.80
55365;DHT22;41245;45.384;20.390;2023-04-29T08:54:06;512.40;2380.80
55365;DHT22;41245;45.384;20.390;2023-04-29T08:56:32;537.80;2406.40
55365;DHT22;41245;45.384;20.390;2023-04-29T08:59:01;538.00;2406.40
55365;DHT22;41245;45.384;20.390;2023-04-29T09:01:27;537.80;2406.40
55365;DHT22;41245;45.384;20.390;2023-04-29T09:06:31;537.90;2406.40
55365;DHT22;41245;45.384;20.390;2023-04-29T09:08:59;538.40;2406.40
55365;DHT22;41245;45.384;20.390;2023-04-29T09:11:27;538.40;2406.40
55365;DHT22;41245;45.384;20.390;2023-04-29T09:13:58;538.30;2406.40
55365;DHT22;41245;45.384;20.390;2023-04-29T09:16:25;563.30;2432.00
55365;DHT22;41245;45.384;20.390;2023-04-29T09:18:51;563.60;2432.00
55365;DHT22;41245;45.384;20.390;2023-04-29T09:21:25;563.30;2432.00
55365;DHT22;41245;45.384;20.390;2023-04-29T09:24:09;563.30;2432.00
55365;DHT22;41245;45.384;20.390;2023-04-29T09:26:42;563.20;2432.00
55365;DHT22;41245;45.384;20.390;2023-04-29T09:29:14;538.40;2406.40
55365;DHT22;41245;45.384;20.390;2023-04-29T09:31:41;563.20;2432.00
55365;DHT22;41245;45.384;20.390;2023-04-29T09:34:07;563.30;2432.00
55365;DHT22;41245;45.384;20.390;2023-04-29T09:36:44;563.60;2432.00
55365;DHT22;41245;45.384;20.390;2023-04-29T09:41:58;564.00;2432.00
55365;DHT22;41245;45.384;20.390;2023-04-29T09:44:29;589.10;2432.00
55365;DHT22;41245;45.384;20.390;2023-04-29T09:47:03;589.20;2432.00
55365;DHT22;41245;45.384;20.390;2023-04-29T09:49:31;589.00;2432.00
55365;DHT22;41245;45.384;20.390;2023-04-29T09:51:59;589.00;2432.00
55365;DHT22;41245;45.384;20.390;2023-04-29T09:54:27;589.30;2432.00
55365;DHT22;41245;45.384;20.390;2023-04-29T09:56:54;589.50;2432.00
55365;DHT22;41245;45.384;20.390;2023-04-29T09:59:20;589.70;2432.00
55365;DHT22;41245;45.384;20.390;2023-04-29T10:01:51;614.60;2432.00
55365;DHT22;41245;45.384;20.390;2023-04-29T10:04:19;614.90;2432.00
55365;DHT22;41245;45.384;20.390;2023-04-29T10:06:47;615.00;2432.00
55365;DHT22;41245;45.384;20.390;2023-04-29T10:09:15;615.20;2432.00
55365;DHT22;41245;45.384;20.390;2023-04-29T10:11:42;640.00;2432.00
55365;DHT22;41245;45.384;20.390;2023-04-29T10:14:14;640.20;2432.00
55365;DHT22;41245;45.384;20.390;2023-04-29T10:19:17;640.50;2432.00
55365;DHT22;41245;45.384;20.390;2023-04-29T10:21:44;640.30;2432.00
55365;DHT22;41245;45.384;20.390;2023-04-29T10:24:12;615.30;2432.00
55365;DHT22;41245;45.384;20.390;2023-04-29T10:26:41;640.10;2432.00
55365;DHT22;41245;45.384;20.390;2023-04-29T10:29:07;640.10;2432.00
55365;DHT22;41245;45.384;20.390;2023-04-29T10:31:35;615.10;2432.00
55365;DHT22;41245;45.384;20.390;2023-04-29T10:34:02;615.00;2432.00
55365;DHT22;41245;45.384;20.390;2023-04-29T10:36:28;614.80;2432.00
55365;DHT22;41245;45.384;20.390;2023-04-29T10:38:59;614.70;2432.00
55365;DHT22;41245;45.384;20.390;2023-04-29T10:41:29;589.60;2432.00
55365;DHT22;41245;45.384;20.390;2023-04-29T10:43:58;589.60;2432.00
55365;DHT22;41245;45.384;20.390;2023-04-29T10:46:25;589.50;2432.00
55365;DHT22;41245;45.384;20.390;2023-04-29T10:48:56;589.40;2432.00
55365;DHT22;41245;45.384;20.390;2023-04-29T10:56:47;589.50;2432.00
55365;DHT22;41245;45.384;20.390;2023-04-29T10:59:17;589.40;2432.00
55365;DHT22;41245;45.384;20.390;2023-04-29T11:01:51;589.40;2432.00
55365;DHT22;41245;45.384;20.390;2023-04-29T11:04:18;589.40;2432.00
55365;DHT22;41245;45.384;20.390;2023-04-29T11:06:51;589.30;2432.00
55365;DHT22;41245;45.384;20.390;2023-04-29T11:09:27;589.30;2432.00
55365;DHT22;41245;45.384;20.390;2023-04-29T11:14:45;589.30;2432.00
55365;DHT22;41245;45.384;20.390;2023-04-29T11:17:14;589.40;2432.00
55365;DHT22;41245;45.384;20.390;2023-04-29T11:19:45;589.40;2432.00
55365;DHT22;41245;45.384;20.390;2023-04-29T11:24:55;589.20;2432.00
55365;DHT22;41245;45.384;20.390;2023-04-29T11:27:23;589.30;2432.00
55365;DHT22;41245;45.384;20.390;2023-04-29T11:29:51;589.30;2432.00
55365;DHT22;41245;45.384;20.390;2023-04-29T11:32:20;589.30;2432.00
55365;DHT22;41245;45.384;20.390;2023-04-29T11:34:47;589.40;2432.00
55365;DHT22;41245;45.384;20.390;2023-04-29T11:37:19;589.60;2432.00
55365;DHT22;41245;45.384;20.390;2023-04-29T11:39:45;589.50;2432.00
55365;DHT22;41245;45.384;20.390;2023-04-29T11:42:10;589.60;2432.00
55365;DHT22;41245;45.384;20.390;2023-04-29T11:44:36;589.60;2432.00
55365;DHT22;41245;45.384;20.390;2023-04-29T11:47:05;589.70;2432.00
55365;DHT22;41245;45.384;20.390;2023-04-29T11:49:33;614.40;2432.00
55365;DHT22;41245;45.384;20.390;2023-04-29T11:51:59;614.50;2432.00
55365;DHT22;41245;45.384;20.390;2023-04-29T11:54:26;614.50;2432.00
55365;DHT22;41245;45.384;20.390;2023-04-29T11:56:55;614.70;2432.00
55365;DHT22;41245;45.384;20.390;2023-04-29T11:59:22;614.70;2432.00
55365;DHT22;41245;45.384;20.390;2023-04-29T12:01:49;614.90;2432.00
55365;DHT22;41245;45.384;20.390;2023-04-29T12:04:15;615.10;2432.00
55365;DHT22;41245;45.384;20.390;2023-04-29T12:06:41;615.10;2432.00
55365;DHT22;41245;45.384;20.390;2023-04-29T12:09:06;615.00;2432.00
55365;DHT22;41245;45.384;20.390;2023-04-29T12:11:33;614.80;2432.00
55365;DHT22;41245;45.384;20.390;2023-04-29T12:14:00;614.70;2432.00
55365;DHT22;41245;45.384;20.390;2023-04-29T12:16:32;614.70;2432.00
55365;DHT22;41245;45.384;20.390;2023-04-29T12:18:58;614.80;2432.00
55365;DHT22;41245;45.384;20.390;2023-04-29T12:21:24;614.80;2432.00
55365;DHT22;41245;45.384;20.390;2023-04-29T12:23:52;614.70;2432.00
55365;DHT22;41245;45.384;20.390;2023-04-29T12:26:18;614.60;2432.00
55365;DHT22;41245;45.384;20.390;2023-04-29T12:28:45;589.50;2432.00
55365;DHT22;41245;45.384;20.390;2023-04-29T12:31:14;589.40;2432.00
55365;DHT22;41245;45.384;20.390;2023-04-29T12:33:42;589.50;2432.00
55365;DHT22;41245;45.384;20.390;2023-04-29T12:36:15;589.70;2432.00
55365;DHT22;41245;45.384;20.390;2023-04-29T12:38:45;614.40;2432.00
55365;DHT22;41245;45.384;20.390;2023-04-29T12:41:12;614.60;2432.00
55365;DHT22;41245;45.384;20.390;2023-04-29T12:43:41;614.70;2432.00
55365;DHT22;41245;45.384;20.390;2023-04-29T12:46:09;614.90;2432.00
55365;DHT22;41245;45.384;20.390;2023-04-29T12:48:36;614.90;2432.00
55365;DHT22;41245;45.384;20.390;2023-04-29T12:51:03;615.20;2432.00
55365;DHT22;41245;45.384;20.390;2023-04-29T12:53:30;615.10;2432.00
55365;DHT22;41245;45.384;20.390;2023-04-29T12:55:56;615.20;2432.00
55365;DHT22;41245;45.384;20.390;2023-04-29T12:58:22;615.30;2432.00
55365;DHT22;41245;45.384;20.390;2023-04-29T13:00:48;640.10;2432.00
55365;DHT22;41245;45.384;20.390;2023-04-29T13:03:14;640.20;2432.00
55365;DHT22;41245;45.384;20.390;2023-04-29T13:05:40;640.30;2432.00
55365;DHT22;41245;45.384;20.390;2023-04-29T13:08:06;640.30;2432.00
55365;DHT22;41245;45.384;20.390;2023-04-29T13:10:33;640.30;2432.00
55365;DHT22;41245;45.384;20.390;2023-04-29T13:12:58;640.00;2432.00
55365;DHT22;41245;45.384;20.390;2023-04-29T13:15:25;615.20;2432.00
55365;DHT22;41245;45.384;20.390;2023-04-29T13:17:52;614.90;2432.00
55365;DHT22;41245;45.384;20.390;2023-04-29T13:20:17;614.70;2432.00
55365;DHT22;41245;45.384;20.390;2023-04-29T13:22:43;614.70;2432.00
55365;DHT22;41245;45.384;20.390;2023-04-29T13:25:10;614.60;2432.00
55365;DHT22;41245;45.384;20.390;2023-04-29T13:27:37;614.50;2432.00
55365;DHT22;41245;45.384;20.390;2023-04-29T13:30:04;614.40;2432.00
55365;DHT22;41245;45.384;20.390;2023-04-29T13:32:30;614.60;2432.00
55365;DHT22;41245;45.384;20.390;2023-04-29T13:34:56;614.60;2432.00
55365;DHT22;41245;45.384;20.390;2023-04-29T13:37:22;614.40;2432.00
55365;DHT22;41245;45.384;20.390;2023-04-29T13:39:48;589.30;2432.00
55365;DHT22;41245;45.384;20.390;2023-04-29T13:42:13;589.10;2432.00
55365;DHT22;41245;45.384;20.390;2023-04-29T13:44:40;589.40;2432.00
55365;DHT22;41245;45.384;20.390;2023-04-29T13:47:12;614.40;2432.00
55365;DHT22;41245;45.384;20.390;2023-04-29T13:49:38;614.70;2432.00
55365;DHT22;41245;45.384;20.390;2023-04-29T13:52:04;614.40;2432.00
55365;DHT22;41245;45.384;20.390;2023-04-29T13:54:30;614.50;2432.00
55365;DHT22;41245;45.384;20.390;2023-04-29T13:56:56;614.50;2432.00
55365;DHT22;41245;45.384;20.390;2023-04-29T13:59:21;614.50;2432.00
55365;DHT22;41245;45.384;20.390;2023-04-29T14:01:47;614.60;2432.00
55365;DHT22;41245;45.384;20.390;2023-04-29T14:04:15;614.50;2432.00
55365;DHT22;41245;45.384;20.390;2023-04-29T14:06:42;589.60;2432.00
55365;DHT22;41245;45.384;20.390;2023-04-29T14:09:08;589.50;2432.00
55365;DHT22;41245;45.384;20.390;2023-04-29T14:11:34;589.30;2432.00
55365;DHT22;41245;45.384;20.390;2023-04-29T14:14:01;588.90;2432.00
55365;DHT22;41245;45.384;20.390;2023-04-29T14:16:28;589.10;2432.00
55365;DHT22;41245;45.384;20.390;2023-04-29T14:18:54;589.20;2432.00
55365;DHT22;41245;45.384;20.390;2023-04-29T14:21:20;589.10;2432.00
55365;DHT22;41245;45.384;20.390;2023-04-29T14:23:49;589.10;2432.00
55365;DHT22;41245;45.384;20.390;2023-04-29T14:26:15;589.10;2432.00
55365;DHT22;41245;45.384;20.390;2023-04-29T14:28:41;589.10;2432.00
55365;DHT22;41245;45.384;20.390;2023-04-29T14:31:06;589.10;2432.00
55365;DHT22;41245;45.384;20.390;2023-04-29T14:33:32;564.00;2432.00
55365;DHT22;41245;45.384;20.390;2023-04-29T14:35:58;564.00;2432.00
55365;DHT22;41245;45.384;20.390;2023-04-29T14:38:25;563.80;2432.00
55365;DHT22;41245;45.384;20.390;2023-04-29T14:40:51;563.70;2432.00
55365;DHT22;41245;45.384;20.390;2023-04-29T14:43:17;563.60;2432.00
55365;DHT22;41245;45.384;20.390;2023-04-29T14:45:43;563.70;2432.00
55365;DHT22;41245;45.384;20.390;2023-04-29T14:48:10;563.80;2432.00
55365;DHT22;41245;45.384;20.390;2023-04-29T14:50:36;563.90;2432.00
55365;DHT22;41245;45.384;20.390;2023-04-29T14:53:01;564.00;2432.00
55365;DHT22;41245;45.384;20.390;2023-04-29T14:55:27;563.90;2432.00
55365;DHT22;41245;45.384;20.390;2023-04-29T14:57:53;563.80;2432.00
55365;DHT22;41245;45.384;20.390;2023-04-29T15:00:19;563.80;2432.00
55365;DHT22;41245;45.384;20.390;2023-04-29T15:02:45;564.00;2432.00
55365;DHT22;41245;45.384;20.390;2023-04-29T15:05:11;564.00;2432.00
55365;DHT22;41245;45.384;20.390;2023-04-29T15:07:37;564.10;2432.00